sensor_id;sensor_type;location;lat;lon;timestamp;P1;durP1;ratioP1;P2;durP2;ratioP2
7983;SDS011;4037;47.980;10.172;2022-09-09T00:02:22;2.63;;;2.03;;
7983;SDS011;4037;47.980;10.172;2022-09-09T00:05:00;5.03;;;1.97;;
7983;SDS011;4037;47.980;10.172;2022-09-09T00:07:42;3.10;;;2.10;;
7983;SDS011;4037;47.980;10.172;2022-09-09T00:15:14;3.57;;;2.03;;
7983;SDS011;4037;47.980;10.172;2022-09-09T00:17:47;6.00;;;1.90;;
7983;SDS011;4037;47.980;10.172;2022-09-09T00:20:19;4.93;;;1.70;;
7983;SDS011;4037;47.980;10.172;2022-09-09T00:23:31;2.67;;;1.80;;
7983;SDS011;4037;47.980;10.172;2022-09-09T00:28:42;2.83;;;1.87;;
7983;SDS011;4037;47.980;10.172;2022-09-09T00:31:18;2.30;;;1.83;;
7983;SDS011;4037;47.980;10.172;2022-09-09T00:33:46;1.73;;;1.63;;
7983;SDS011;4037;47.980;10.172;2022-09-09T00:36:14;2.33;;;1.90;;
7983;SDS011;4037;47.980;10.172;2022-09-09T00:39:00;2.30;;;1.90;;
7983;SDS011;4037;47.980;10.172;2022-09-09T00:49:57;3.37;;;1.80;;
7983;SDS011;4037;47.980;10.172;2022-09-09T00:52:37;3.33;;;1.80;;
7983;SDS011;4037;47.980;10.172;2022-09-09T00:55:07;3.40;;;2.20;;
7983;SDS011;4037;47.980;10.172;2022-09-09T00:57:37;2.27;;;2.00;;
7983;SDS011;4037;47.980;10.172;2022-09-09T01:00:20;3.13;;;1.70;;
7983;SDS011;4037;47.980;10.172;2022-09-09T01:05:19;5.13;;;2.33;;
7983;SDS011;4037;47.980;10.172;2022-09-09T01:07:47;2.57;;;1.90;;
7983;SDS011;4037;47.980;10.172;2022-09-09T01:10:21;4.40;;;2.10;;
7983;SDS011;4037;47.980;10.172;2022-09-09T01:12:51;3.53;;;2.00;;
7983;SDS011;4037;47.980;10.172;2022-09-09T01:15:21;4.33;;;2.17;;
7983;SDS011;4037;47.980;10.172;2022-09-09T01:28:08;3.27;;;1.87;;
7983;SDS011;4037;47.980;10.172;2022-09-09T01:30:38;2.67;;;1.97;;
7983;SDS011;4037;47.980;10.172;2022-09-09T01:33:04;3.70;;;2.13;;
7983;SDS011;4037;47.980;10.172;2022-09-09T01:35:39;3.53;;;2.00;;
7983;SDS011;4037;47.980;10.172;2022-09-09T01:38:07;2.30;;;1.90;;
7983;SDS011;4037;47.980;10.172;2022-09-09T01:40:34;4.33;;;2.10;;
7983;SDS011;4037;47.980;10.172;2022-09-09T01:43:00;3.43;;;1.97;;
7983;SDS011;4037;47.980;10.172;2022-09-09T01:45:26;3.30;;;2.00;;
7983;SDS011;4037;47.980;10.172;2022-09-09T01:47:52;4.67;;;2.07;;
7983;SDS011;4037;47.980;10.172;2022-09-09T01:50:19;3.10;;;1.87;;
7983;SDS011;4037;47.980;10.172;2022-09-09T01:52:46;3.13;;;2.00;;
7983;SDS011;4037;47.980;10.172;2022-09-09T01:55:14;4.40;;;2.27;;
7983;SDS011;4037;47.980;10.172;2022-09-09T01:57:51;2.80;;;2.13;;
7983;SDS011;4037;47.980;10.172;2022-09-09T02:00:17;2.20;;;2.00;;
7983;SDS011;4037;47.980;10.172;2022-09-09T02:07:48;2.53;;;2.00;;
7983;SDS011;4037;47.980;10.172;2022-09-09T02:12:42;2.50;;;2.17;;
7983;SDS011;4037;47.980;10.172;2022-09-09T02:15:12;5.17;;;2.30;;
7983;SDS011;4037;47.980;10.172;2022-09-09T02:17:42;2.50;;;2.00;;
7983;SDS011;4037;47.980;10.172;2022-09-09T02:20:09;3.83;;;2.23;;
7983;SDS011;4037;47.980;10.172;2022-09-09T02:22:37;9.23;;;2.60;;
7983;SDS011;4037;47.980;10.172;2022-09-09T02:25:05;6.07;;;3.03;;
7983;SDS011;4037;47.980;10.172;2022-09-09T02:27:32;6.03;;;2.20;;
7983;SDS011;4037;47.980;10.172;2022-09-09T02:29:58;5.93;;;3.10;;
7983;SDS011;4037;47.980;10.172;2022-09-09T02:32:27;3.90;;;2.43;;
7983;SDS011;4037;47.980;10.172;2022-09-09T02:34:56;4.33;;;2.13;;
7983;SDS011;4037;47.980;10.172;2022-09-09T02:37:25;2.23;;;2.03;;
7983;SDS011;4037;47.980;10.172;2022-09-09T02:39:53;2.30;;;2.00;;
7983;SDS011;4037;47.980;10.172;2022-09-09T02:42:19;2.07;;;1.90;;
7983;SDS011;4037;47.980;10.172;2022-09-09T02:44:45;4.20;;;2.03;;
7983;SDS011;4037;47.980;10.172;2022-09-09T02:52:07;4.20;;;2.20;;
7983;SDS011;4037;47.980;10.172;2022-09-09T02:54:42;4.03;;;2.20;;
7983;SDS011;4037;47.980;10.172;2022-09-09T02:59:38;5.00;;;2.30;;
7983;SDS011;4037;47.980;10.172;2022-09-09T03:02:04;8.87;;;2.20;;
7983;SDS011;4037;47.980;10.172;2022-09-09T03:04:30;3.60;;;2.13;;
7983;SDS011;4037;47.980;10.172;2022-09-09T03:06:57;3.33;;;1.87;;
7983;SDS011;4037;47.980;10.172;2022-09-09T03:09:23;2.63;;;2.40;;
7983;SDS011;4037;47.980;10.172;2022-09-09T03:11:49;2.87;;;2.10;;
7983;SDS011;4037;47.980;10.172;2022-09-09T03:14:18;3.97;;;2.40;;
7983;SDS011;4037;47.980;10.172;2022-09-09T03:16:46;4.83;;;2.57;;
7983;SDS011;4037;47.980;10.172;2022-09-09T03:19:13;3.07;;;2.77;;
7983;SDS011;4037;47.980;10.172;2022-09-09T03:21:39;2.60;;;2.40;;
7983;SDS011;4037;47.980;10.172;2022-09-09T03:24:05;3.07;;;2.73;;
7983;SDS011;4037;47.980;10.172;2022-09-09T03:26:31;7.13;;;3.00;;
7983;SDS011;4037;47.980;10.172;2022-09-09T03:28:57;3.33;;;2.50;;
7983;SDS011;4037;47.980;10.172;2022-09-09T03:31:25;3.20;;;2.53;;
7983;SDS011;4037;47.980;10.172;2022-09-09T03:33:55;3.30;;;2.50;;
7983;SDS011;4037;47.980;10.172;2022-09-09T03:36:20;4.70;;;2.70;;
7983;SDS011;4037;47.980;10.172;2022-09-09T03:38:46;3.73;;;2.97;;
7983;SDS011;4037;47.980;10.172;2022-09-09T03:41:12;3.90;;;2.57;;
7983;SDS011;4037;47.980;10.172;2022-09-09T03:43:39;3.20;;;2.63;;
7983;SDS011;4037;47.980;10.172;2022-09-09T03:46:06;2.87;;;2.50;;
7983;SDS011;4037;47.980;10.172;2022-09-09T03:48:32;4.37;;;2.97;;
7983;SDS011;4037;47.980;10.172;2022-09-09T03:50:59;4.17;;;3.20;;
7983;SDS011;4037;47.980;10.172;2022-09-09T03:53:26;2.80;;;2.57;;
7983;SDS011;4037;47.980;10.172;2022-09-09T03:55:53;4.10;;;2.90;;
7983;SDS011;4037;47.980;10.172;2022-09-09T03:58:20;3.60;;;3.30;;
7983;SDS011;4037;47.980;10.172;2022-09-09T04:00:56;5.23;;;2.97;;
7983;SDS011;4037;47.980;10.172;2022-09-09T04:03:22;4.43;;;3.07;;
7983;SDS011;4037;47.980;10.172;2022-09-09T04:05:49;3.77;;;2.97;;
7983;SDS011;4037;47.980;10.172;2022-09-09T04:08:16;4.23;;;2.80;;
7983;SDS011;4037;47.980;10.172;2022-09-09T04:10:44;3.50;;;2.83;;
7983;SDS011;4037;47.980;10.172;2022-09-09T04:13:11;3.33;;;2.90;;
7983;SDS011;4037;47.980;10.172;2022-09-09T04:15:41;3.23;;;2.93;;
7983;SDS011;4037;47.980;10.172;2022-09-09T04:18:07;4.03;;;2.90;;
7983;SDS011;4037;47.980;10.172;2022-09-09T04:20:33;3.57;;;2.73;;
7983;SDS011;4037;47.980;10.172;2022-09-09T04:22:59;3.73;;;2.80;;
7983;SDS011;4037;47.980;10.172;2022-09-09T04:25:25;3.20;;;2.73;;
7983;SDS011;4037;47.980;10.172;2022-09-09T04:27:55;3.13;;;2.53;;
7983;SDS011;4037;47.980;10.172;2022-09-09T04:30:22;5.50;;;2.50;;
7983;SDS011;4037;47.980;10.172;2022-09-09T04:32:48;3.17;;;2.47;;
7983;SDS011;4037;47.980;10.172;2022-09-09T04:35:14;2.73;;;2.50;;
7983;SDS011;4037;47.980;10.172;2022-09-09T04:37:40;3.03;;;2.63;;
7983;SDS011;4037;47.980;10.172;2022-09-09T04:40:07;3.70;;;2.40;;
7983;SDS011;4037;47.980;10.172;2022-09-09T04:42:35;4.60;;;2.83;;
7983;SDS011;4037;47.980;10.172;2022-09-09T04:45:01;3.73;;;2.97;;
7983;SDS011;4037;47.980;10.172;2022-09-09T04:47:27;2.80;;;2.60;;
7983;SDS011;4037;47.980;10.172;2022-09-09T04:49:53;3.03;;;2.73;;
7983;SDS011;4037;47.980;10.172;2022-09-09T04:52:20;5.33;;;2.80;;
7983;SDS011;4037;47.980;10.172;2022-09-09T04:54:46;4.77;;;2.60;;
7983;SDS011;4037;47.980;10.172;2022-09-09T04:57:12;3.10;;;2.53;;
7983;SDS011;4037;47.980;10.172;2022-09-09T04:59:38;2.83;;;2.43;;
7983;SDS011;4037;47.980;10.172;2022-09-09T05:02:05;2.90;;;2.10;;
7983;SDS011;4037;47.980;10.172;2022-09-09T05:04:31;3.37;;;2.30;;
7983;SDS011;4037;47.980;10.172;2022-09-09T05:06:58;2.17;;;2.00;;
7983;SDS011;4037;47.980;10.172;2022-09-09T05:09:24;3.47;;;2.50;;
7983;SDS011;4037;47.980;10.172;2022-09-09T05:11:50;3.17;;;2.33;;
7983;SDS011;4037;47.980;10.172;2022-09-09T05:14:16;4.53;;;2.73;;
7983;SDS011;4037;47.980;10.172;2022-09-09T05:16:45;3.63;;;2.20;;
7983;SDS011;4037;47.980;10.172;2022-09-09T05:19:12;5.00;;;2.30;;
7983;SDS011;4037;47.980;10.172;2022-09-09T05:21:38;4.30;;;2.30;;
7983;SDS011;4037;47.980;10.172;2022-09-09T05:24:04;3.70;;;2.40;;
7983;SDS011;4037;47.980;10.172;2022-09-09T05:26:30;2.50;;;2.30;;
7983;SDS011;4037;47.980;10.172;2022-09-09T05:28:57;3.70;;;2.67;;
7983;SDS011;4037;47.980;10.172;2022-09-09T05:31:25;4.00;;;2.47;;
7983;SDS011;4037;47.980;10.172;2022-09-09T05:33:53;3.03;;;2.33;;
7983;SDS011;4037;47.980;10.172;2022-09-09T05:36:20;3.07;;;2.60;;
7983;SDS011;4037;47.980;10.172;2022-09-09T05:38:47;6.03;;;2.60;;
7983;SDS011;4037;47.980;10.172;2022-09-09T05:41:13;6.00;;;2.90;;
7983;SDS011;4037;47.980;10.172;2022-09-09T05:43:43;4.97;;;2.60;;
7983;SDS011;4037;47.980;10.172;2022-09-09T05:46:15;2.63;;;2.43;;
7983;SDS011;4037;47.980;10.172;2022-09-09T05:48:43;4.10;;;2.40;;
7983;SDS011;4037;47.980;10.172;2022-09-09T05:51:12;3.73;;;2.77;;
7983;SDS011;4037;47.980;10.172;2022-09-09T05:53:40;3.33;;;2.57;;
7983;SDS011;4037;47.980;10.172;2022-09-09T05:56:10;6.87;;;2.87;;
7983;SDS011;4037;47.980;10.172;2022-09-09T05:58:37;3.73;;;2.37;;
7983;SDS011;4037;47.980;10.172;2022-09-09T06:01:11;4.27;;;2.40;;
7983;SDS011;4037;47.980;10.172;2022-09-09T06:03:39;3.63;;;2.20;;
7983;SDS011;4037;47.980;10.172;2022-09-09T06:06:06;3.37;;;2.67;;
7983;SDS011;4037;47.980;10.172;2022-09-09T06:08:33;5.00;;;2.50;;
7983;SDS011;4037;47.980;10.172;2022-09-09T06:11:03;6.67;;;2.67;;
7983;SDS011;4037;47.980;10.172;2022-09-09T06:13:30;5.60;;;2.70;;
7983;SDS011;4037;47.980;10.172;2022-09-09T06:15:56;3.53;;;2.20;;
7983;SDS011;4037;47.980;10.172;2022-09-09T06:18:23;5.43;;;2.30;;
7983;SDS011;4037;47.980;10.172;2022-09-09T06:20:59;3.53;;;2.50;;
7983;SDS011;4037;47.980;10.172;2022-09-09T06:23:26;4.20;;;2.30;;
7983;SDS011;4037;47.980;10.172;2022-09-09T06:26:00;3.20;;;2.50;;
7983;SDS011;4037;47.980;10.172;2022-09-09T06:28:26;3.90;;;2.40;;
7983;SDS011;4037;47.980;10.172;2022-09-09T06:31:06;8.57;;;2.90;;
7983;SDS011;4037;47.980;10.172;2022-09-09T06:33:33;2.97;;;2.33;;
7983;SDS011;4037;47.980;10.172;2022-09-09T06:36:00;2.47;;;2.20;;
7983;SDS011;4037;47.980;10.172;2022-09-09T06:38:26;3.43;;;2.23;;
7983;SDS011;4037;47.980;10.172;2022-09-09T06:40:53;4.43;;;2.20;;
7983;SDS011;4037;47.980;10.172;2022-09-09T06:43:23;3.33;;;2.20;;
7983;SDS011;4037;47.980;10.172;2022-09-09T06:45:56;2.13;;;1.93;;
7983;SDS011;4037;47.980;10.172;2022-09-09T06:48:22;3.33;;;2.20;;
7983;SDS011;4037;47.980;10.172;2022-09-09T06:50:51;2.50;;;2.07;;
7983;SDS011;4037;47.980;10.172;2022-09-09T06:53:17;4.43;;;2.40;;
7983;SDS011;4037;47.980;10.172;2022-09-09T06:55:46;6.80;;;2.93;;
7983;SDS011;4037;47.980;10.172;2022-09-09T06:58:13;2.43;;;2.20;;
7983;SDS011;4037;47.980;10.172;2022-09-09T07:00:39;3.20;;;2.57;;
7983;SDS011;4037;47.980;10.172;2022-09-09T07:03:05;3.33;;;2.00;;
7983;SDS011;4037;47.980;10.172;2022-09-09T07:05:31;2.57;;;2.00;;
7983;SDS011;4037;47.980;10.172;2022-09-09T07:07:57;3.23;;;2.17;;
7983;SDS011;4037;47.980;10.172;2022-09-09T07:10:23;3.43;;;2.23;;
7983;SDS011;4037;47.980;10.172;2022-09-09T07:12:53;2.30;;;2.03;;
7983;SDS011;4037;47.980;10.172;2022-09-09T07:15:19;3.23;;;2.20;;
7983;SDS011;4037;47.980;10.172;2022-09-09T07:17:47;2.77;;;2.10;;
7983;SDS011;4037;47.980;10.172;2022-09-09T07:20:13;2.70;;;2.10;;
7983;SDS011;4037;47.980;10.172;2022-09-09T07:22:40;4.40;;;2.20;;
7983;SDS011;4037;47.980;10.172;2022-09-09T07:25:06;5.00;;;2.30;;
7983;SDS011;4037;47.980;10.172;2022-09-09T07:27:33;4.70;;;2.33;;
7983;SDS011;4037;47.980;10.172;2022-09-09T07:29:59;3.33;;;2.27;;
7983;SDS011;4037;47.980;10.172;2022-09-09T07:32:25;6.57;;;2.43;;
7983;SDS011;4037;47.980;10.172;2022-09-09T07:34:51;2.90;;;2.23;;
7983;SDS011;4037;47.980;10.172;2022-09-09T07:37:17;5.20;;;2.40;;
7983;SDS011;4037;47.980;10.172;2022-09-09T07:39:44;2.90;;;1.87;;
7983;SDS011;4037;47.980;10.172;2022-09-09T07:42:10;3.30;;;1.90;;
7983;SDS011;4037;47.980;10.172;2022-09-09T07:44:36;4.30;;;1.70;;
7983;SDS011;4037;47.980;10.172;2022-09-09T07:47:04;3.17;;;2.20;;
7983;SDS011;4037;47.980;10.172;2022-09-09T07:49:30;5.40;;;2.20;;
7983;SDS011;4037;47.980;10.172;2022-09-09T07:51:57;3.87;;;2.27;;
7983;SDS011;4037;47.980;10.172;2022-09-09T07:54:23;3.33;;;2.10;;
7983;SDS011;4037;47.980;10.172;2022-09-09T07:56:51;2.23;;;1.63;;
7983;SDS011;4037;47.980;10.172;2022-09-09T07:59:17;2.00;;;1.80;;
7983;SDS011;4037;47.980;10.172;2022-09-09T08:01:45;3.37;;;1.90;;
7983;SDS011;4037;47.980;10.172;2022-09-09T08:04:16;2.43;;;2.00;;
7983;SDS011;4037;47.980;10.172;2022-09-09T08:06:49;2.63;;;1.90;;
7983;SDS011;4037;47.980;10.172;2022-09-09T08:09:17;2.53;;;1.67;;
7983;SDS011;4037;47.980;10.172;2022-09-09T08:11:43;4.63;;;2.13;;
7983;SDS011;4037;47.980;10.172;2022-09-09T08:14:10;2.93;;;1.70;;
7983;SDS011;4037;47.980;10.172;2022-09-09T08:16:40;3.00;;;1.90;;
7983;SDS011;4037;47.980;10.172;2022-09-09T08:19:07;3.13;;;1.53;;
7983;SDS011;4037;47.980;10.172;2022-09-09T08:21:34;3.20;;;1.67;;
7983;SDS011;4037;47.980;10.172;2022-09-09T08:24:01;2.67;;;1.73;;
7983;SDS011;4037;47.980;10.172;2022-09-09T08:26:31;3.50;;;1.93;;
7983;SDS011;4037;47.980;10.172;2022-09-09T08:28:59;3.60;;;1.70;;
7983;SDS011;4037;47.980;10.172;2022-09-09T08:33:55;6.83;;;1.90;;
7983;SDS011;4037;47.980;10.172;2022-09-09T08:36:23;5.30;;;1.60;;
7983;SDS011;4037;47.980;10.172;2022-09-09T08:38:49;1.60;;;1.50;;
7983;SDS011;4037;47.980;10.172;2022-09-09T08:41:22;5.80;;;1.60;;
7983;SDS011;4037;47.980;10.172;2022-09-09T08:43:51;4.40;;;1.80;;
7983;SDS011;4037;47.980;10.172;2022-09-09T08:46:25;2.47;;;1.80;;
7983;SDS011;4037;47.980;10.172;2022-09-09T08:48:58;3.47;;;1.97;;
7983;SDS011;4037;47.980;10.172;2022-09-09T08:51:27;2.83;;;1.60;;
7983;SDS011;4037;47.980;10.172;2022-09-09T08:53:56;2.20;;;1.50;;
7983;SDS011;4037;47.980;10.172;2022-09-09T08:56:25;1.50;;;1.20;;
7983;SDS011;4037;47.980;10.172;2022-09-09T08:58:52;2.10;;;1.30;;
7983;SDS011;4037;47.980;10.172;2022-09-09T09:11:37;4.20;;;1.30;;
7983;SDS011;4037;47.980;10.172;2022-09-09T09:14:09;2.10;;;1.63;;
7983;SDS011;4037;47.980;10.172;2022-09-09T09:17:19;4.10;;;1.77;;
7983;SDS011;4037;47.980;10.172;2022-09-09T09:19:26;3.57;;;1.67;;
7983;SDS011;4037;47.980;10.172;2022-09-09T09:24:24;2.60;;;1.87;;
7983;SDS011;4037;47.980;10.172;2022-09-09T09:26:53;3.60;;;1.83;;
7983;SDS011;4037;47.980;10.172;2022-09-09T09:29:19;3.27;;;1.80;;
7983;SDS011;4037;47.980;10.172;2022-09-09T09:31:53;7.60;;;1.90;;
7983;SDS011;4037;47.980;10.172;2022-09-09T09:34:19;2.63;;;1.77;;
7983;SDS011;4037;47.980;10.172;2022-09-09T09:39:28;3.57;;;1.50;;
7983;SDS011;4037;47.980;10.172;2022-09-09T09:41:55;2.37;;;1.73;;
7983;SDS011;4037;47.980;10.172;2022-09-09T09:44:26;4.30;;;1.87;;
7983;SDS011;4037;47.980;10.172;2022-09-09T09:46:53;4.20;;;2.27;;
7983;SDS011;4037;47.980;10.172;2022-09-09T09:49:19;1.60;;;1.50;;
7983;SDS011;4037;47.980;10.172;2022-09-09T09:51:45;2.70;;;1.77;;
7983;SDS011;4037;47.980;10.172;2022-09-09T09:56:41;2.47;;;1.60;;
7983;SDS011;4037;47.980;10.172;2022-09-09T10:01:53;3.67;;;1.60;;
7983;SDS011;4037;47.980;10.172;2022-09-09T10:04:20;5.30;;;1.43;;
7983;SDS011;4037;47.980;10.172;2022-09-09T10:06:49;3.27;;;1.57;;
7983;SDS011;4037;47.980;10.172;2022-09-09T10:09:20;2.53;;;1.73;;
7983;SDS011;4037;47.980;10.172;2022-09-09T10:22:27;3.20;;;1.97;;
7983;SDS011;4037;47.980;10.172;2022-09-09T10:32:49;5.40;;;2.47;;
7983;SDS011;4037;47.980;10.172;2022-09-09T10:42:41;3.73;;;2.30;;
7983;SDS011;4037;47.980;10.172;2022-09-09T10:45:15;1.80;;;1.53;;
7983;SDS011;4037;47.980;10.172;2022-09-09T10:47:49;5.80;;;2.00;;
7983;SDS011;4037;47.980;10.172;2022-09-09T10:52:55;4.00;;;1.73;;
7983;SDS011;4037;47.980;10.172;2022-09-09T10:55:27;5.37;;;1.93;;
7983;SDS011;4037;47.980;10.172;2022-09-09T10:57:56;4.10;;;1.70;;
7983;SDS011;4037;47.980;10.172;2022-09-09T11:03:00;4.93;;;1.80;;
7983;SDS011;4037;47.980;10.172;2022-09-09T11:07:56;3.47;;;1.67;;
7983;SDS011;4037;47.980;10.172;2022-09-09T11:13:01;17.63;;;1.77;;
7983;SDS011;4037;47.980;10.172;2022-09-09T11:15:35;2.90;;;1.90;;
7983;SDS011;4037;47.980;10.172;2022-09-09T11:18:03;3.07;;;1.57;;
7983;SDS011;4037;47.980;10.172;2022-09-09T11:20:31;3.03;;;1.50;;
7983;SDS011;4037;47.980;10.172;2022-09-09T11:25:26;3.43;;;1.80;;
7983;SDS011;4037;47.980;10.172;2022-09-09T11:33:08;3.50;;;2.00;;
7983;SDS011;4037;47.980;10.172;2022-09-09T11:35:48;4.50;;;1.70;;
7983;SDS011;4037;47.980;10.172;2022-09-09T11:38:27;4.27;;;1.47;;
7983;SDS011;4037;47.980;10.172;2022-09-09T11:40:57;3.37;;;1.63;;
7983;SDS011;4037;47.980;10.172;2022-09-09T11:43:38;3.87;;;1.73;;
7983;SDS011;4037;47.980;10.172;2022-09-09T11:46:05;4.60;;;1.50;;
7983;SDS011;4037;47.980;10.172;2022-09-09T11:48:33;3.83;;;1.20;;
7983;SDS011;4037;47.980;10.172;2022-09-09T11:51:01;2.20;;;1.23;;
7983;SDS011;4037;47.980;10.172;2022-09-09T11:53:30;2.90;;;1.47;;
7983;SDS011;4037;47.980;10.172;2022-09-09T11:56:00;4.20;;;1.60;;
7983;SDS011;4037;47.980;10.172;2022-09-09T11:58:26;2.03;;;1.20;;
7983;SDS011;4037;47.980;10.172;2022-09-09T12:00:53;2.27;;;1.37;;
7983;SDS011;4037;47.980;10.172;2022-09-09T12:08:36;2.70;;;1.17;;
7983;SDS011;4037;47.980;10.172;2022-09-09T12:11:03;3.77;;;1.20;;
7983;SDS011;4037;47.980;10.172;2022-09-09T12:13:29;3.23;;;1.90;;
7983;SDS011;4037;47.980;10.172;2022-09-09T12:15:57;3.17;;;1.30;;
7983;SDS011;4037;47.980;10.172;2022-09-09T12:18:25;2.30;;;1.30;;
7983;SDS011;4037;47.980;10.172;2022-09-09T12:21:36;3.00;;;1.20;;
7983;SDS011;4037;47.980;10.172;2022-09-09T12:23:52;1.90;;;1.10;;
7983;SDS011;4037;47.980;10.172;2022-09-09T12:26:35;2.37;;;1.10;;
7983;SDS011;4037;47.980;10.172;2022-09-09T12:34:11;20.30;;;7.27;;
7983;SDS011;4037;47.980;10.172;2022-09-09T12:36:39;4.20;;;1.70;;
7983;SDS011;4037;47.980;10.172;2022-09-09T12:39:26;2.50;;;1.60;;
7983;SDS011;4037;47.980;10.172;2022-09-09T12:41:53;5.00;;;2.33;;
7983;SDS011;4037;47.980;10.172;2022-09-09T12:44:22;8.53;;;3.37;;
7983;SDS011;4037;47.980;10.172;2022-09-09T12:46:48;4.57;;;1.60;;
7983;SDS011;4037;47.980;10.172;2022-09-09T12:49:31;1.73;;;1.10;;
7983;SDS011;4037;47.980;10.172;2022-09-09T12:52:43;3.47;;;1.87;;
7983;SDS011;4037;47.980;10.172;2022-09-09T12:54:51;4.30;;;1.83;;
7983;SDS011;4037;47.980;10.172;2022-09-09T12:57:18;2.53;;;1.23;;
7983;SDS011;4037;47.980;10.172;2022-09-09T12:59:45;3.73;;;1.37;;
7983;SDS011;4037;47.980;10.172;2022-09-09T13:02:14;4.67;;;1.77;;
7983;SDS011;4037;47.980;10.172;2022-09-09T13:04:42;2.83;;;1.60;;
7983;SDS011;4037;47.980;10.172;2022-09-09T13:07:09;2.43;;;1.10;;
7983;SDS011;4037;47.980;10.172;2022-09-09T13:09:36;1.43;;;1.23;;
7983;SDS011;4037;47.980;10.172;2022-09-09T13:12:02;3.53;;;1.10;;
7983;SDS011;4037;47.980;10.172;2022-09-09T13:14:34;1.83;;;1.10;;
7983;SDS011;4037;47.980;10.172;2022-09-09T13:17:03;2.57;;;1.20;;
7983;SDS011;4037;47.980;10.172;2022-09-09T13:19:30;1.33;;;1.00;;
7983;SDS011;4037;47.980;10.172;2022-09-09T13:21:57;3.17;;;1.10;;
7983;SDS011;4037;47.980;10.172;2022-09-09T13:26:56;4.87;;;1.40;;
7983;SDS011;4037;47.980;10.172;2022-09-09T13:29:23;2.00;;;1.40;;
7983;SDS011;4037;47.980;10.172;2022-09-09T13:31:49;3.73;;;1.30;;
7983;SDS011;4037;47.980;10.172;2022-09-09T13:34:28;2.53;;;1.20;;
7983;SDS011;4037;47.980;10.172;2022-09-09T13:36:59;2.33;;;1.47;;
7983;SDS011;4037;47.980;10.172;2022-09-09T13:39:27;1.90;;;1.33;;
7983;SDS011;4037;47.980;10.172;2022-09-09T13:41:53;1.83;;;1.20;;
7983;SDS011;4037;47.980;10.172;2022-09-09T13:44:21;3.47;;;1.53;;
7983;SDS011;4037;47.980;10.172;2022-09-09T13:46:58;1.73;;;1.43;;
7983;SDS011;4037;47.980;10.172;2022-09-09T13:49:26;8.45;;;1.88;;
7983;SDS011;4037;47.980;10.172;2022-09-09T13:52:02;1.90;;;1.10;;
7983;SDS011;4037;47.980;10.172;2022-09-09T13:54:28;2.83;;;1.10;;
7983;SDS011;4037;47.980;10.172;2022-09-09T13:56:55;3.55;;;1.30;;
7983;SDS011;4037;47.980;10.172;2022-09-09T13:59:21;0.98;;;0.82;;
7983;SDS011;4037;47.980;10.172;2022-09-09T14:01:49;1.48;;;1.23;;
7983;SDS011;4037;47.980;10.172;2022-09-09T14:04:17;5.30;;;2.05;;
7983;SDS011;4037;47.980;10.172;2022-09-09T14:06:45;2.05;;;0.93;;
7983;SDS011;4037;47.980;10.172;2022-09-09T14:09:13;1.60;;;0.90;;
7983;SDS011;4037;47.980;10.172;2022-09-09T14:11:40;2.00;;;1.10;;
7983;SDS011;4037;47.980;10.172;2022-09-09T14:14:06;3.80;;;1.10;;
7983;SDS011;4037;47.980;10.172;2022-09-09T14:16:32;2.63;;;1.25;;
7983;SDS011;4037;47.980;10.172;2022-09-09T14:18:58;2.70;;;1.40;;
7983;SDS011;4037;47.980;10.172;2022-09-09T14:21:24;2.53;;;1.33;;
7983;SDS011;4037;47.980;10.172;2022-09-09T14:23:51;1.20;;;1.10;;
7983;SDS011;4037;47.980;10.172;2022-09-09T14:26:18;2.93;;;1.00;;
7983;SDS011;4037;47.980;10.172;2022-09-09T14:28:45;3.53;;;1.43;;
7983;SDS011;4037;47.980;10.172;2022-09-09T14:31:11;3.03;;;1.00;;
7983;SDS011;4037;47.980;10.172;2022-09-09T14:33:38;2.20;;;1.10;;
7983;SDS011;4037;47.980;10.172;2022-09-09T14:36:04;2.40;;;1.13;;
7983;SDS011;4037;47.980;10.172;2022-09-09T14:38:32;1.57;;;1.20;;
7983;SDS011;4037;47.980;10.172;2022-09-09T14:40:58;2.67;;;1.20;;
7983;SDS011;4037;47.980;10.172;2022-09-09T14:43:24;4.20;;;1.23;;
7983;SDS011;4037;47.980;10.172;2022-09-09T14:45:52;1.90;;;1.10;;
7983;SDS011;4037;47.980;10.172;2022-09-09T14:48:18;2.03;;;0.93;;
7983;SDS011;4037;47.980;10.172;2022-09-09T14:50:44;4.33;;;1.03;;
7983;SDS011;4037;47.980;10.172;2022-09-09T14:53:10;2.03;;;1.10;;
7983;SDS011;4037;47.980;10.172;2022-09-09T14:55:36;3.03;;;1.30;;
7983;SDS011;4037;47.980;10.172;2022-09-09T14:58:03;2.50;;;0.90;;
7983;SDS011;4037;47.980;10.172;2022-09-09T15:00:29;1.60;;;1.03;;
7983;SDS011;4037;47.980;10.172;2022-09-09T15:02:55;2.07;;;0.90;;
7983;SDS011;4037;47.980;10.172;2022-09-09T15:05:21;2.63;;;1.20;;
7983;SDS011;4037;47.980;10.172;2022-09-09T15:07:49;3.37;;;1.20;;
7983;SDS011;4037;47.980;10.172;2022-09-09T15:10:15;2.40;;;1.10;;
7983;SDS011;4037;47.980;10.172;2022-09-09T15:12:42;2.80;;;1.20;;
7983;SDS011;4037;47.980;10.172;2022-09-09T15:15:08;4.17;;;1.30;;
7983;SDS011;4037;47.980;10.172;2022-09-09T15:17:34;3.33;;;1.27;;
7983;SDS011;4037;47.980;10.172;2022-09-09T15:20:02;1.43;;;1.30;;
7983;SDS011;4037;47.980;10.172;2022-09-09T15:22:30;5.10;;;1.40;;
7983;SDS011;4037;47.980;10.172;2022-09-09T15:24:56;2.37;;;1.30;;
7983;SDS011;4037;47.980;10.172;2022-09-09T15:27:22;1.47;;;1.20;;
7983;SDS011;4037;47.980;10.172;2022-09-09T15:29:48;2.07;;;1.30;;
7983;SDS011;4037;47.980;10.172;2022-09-09T15:32:16;2.07;;;1.10;;
7983;SDS011;4037;47.980;10.172;2022-09-09T15:34:42;2.43;;;1.40;;
7983;SDS011;4037;47.980;10.172;2022-09-09T15:37:11;1.07;;;1.00;;
7983;SDS011;4037;47.980;10.172;2022-09-09T15:39:38;4.60;;;1.30;;
7983;SDS011;4037;47.980;10.172;2022-09-09T15:42:04;3.77;;;1.30;;
7983;SDS011;4037;47.980;10.172;2022-09-09T15:44:41;4.00;;;2.00;;
7983;SDS011;4037;47.980;10.172;2022-09-09T15:47:11;3.30;;;1.23;;
7983;SDS011;4037;47.980;10.172;2022-09-09T15:49:38;1.43;;;1.10;;
7983;SDS011;4037;47.980;10.172;2022-09-09T15:52:04;1.40;;;0.93;;
7983;SDS011;4037;47.980;10.172;2022-09-09T15:54:31;2.27;;;1.13;;
7983;SDS011;4037;47.980;10.172;2022-09-09T15:56:58;2.17;;;1.20;;
7983;SDS011;4037;47.980;10.172;2022-09-09T15:59:26;3.47;;;1.00;;
7983;SDS011;4037;47.980;10.172;2022-09-09T16:01:55;1.33;;;0.90;;
7983;SDS011;4037;47.980;10.172;2022-09-09T16:04:26;2.63;;;1.47;;
7983;SDS011;4037;47.980;10.172;2022-09-09T16:07:01;3.47;;;1.30;;
7983;SDS011;4037;47.980;10.172;2022-09-09T16:09:28;2.33;;;1.10;;
7983;SDS011;4037;47.980;10.172;2022-09-09T16:11:58;3.07;;;1.20;;
7983;SDS011;4037;47.980;10.172;2022-09-09T16:14:25;1.97;;;1.10;;
7983;SDS011;4037;47.980;10.172;2022-09-09T16:16:51;2.00;;;1.10;;
7983;SDS011;4037;47.980;10.172;2022-09-09T16:19:18;3.53;;;1.50;;
7983;SDS011;4037;47.980;10.172;2022-09-09T16:21:45;4.47;;;1.40;;
7983;SDS011;4037;47.980;10.172;2022-09-09T16:24:14;1.80;;;1.27;;
7983;SDS011;4037;47.980;10.172;2022-09-09T16:26:42;2.77;;;1.40;;
7983;SDS011;4037;47.980;10.172;2022-09-09T16:29:10;2.03;;;1.20;;
7983;SDS011;4037;47.980;10.172;2022-09-09T16:31:36;2.73;;;1.30;;
7983;SDS011;4037;47.980;10.172;2022-09-09T16:34:03;2.33;;;1.20;;
7983;SDS011;4037;47.980;10.172;2022-09-09T16:36:29;1.23;;;1.00;;
7983;SDS011;4037;47.980;10.172;2022-09-09T16:38:57;2.03;;;1.00;;
7983;SDS011;4037;47.980;10.172;2022-09-09T16:41:23;2.57;;;1.30;;
7983;SDS011;4037;47.980;10.172;2022-09-09T16:43:56;2.47;;;1.40;;
7983;SDS011;4037;47.980;10.172;2022-09-09T16:46:23;2.60;;;1.43;;
7983;SDS011;4037;47.980;10.172;2022-09-09T16:48:50;2.33;;;1.10;;
7983;SDS011;4037;47.980;10.172;2022-09-09T16:51:18;2.07;;;1.30;;
7983;SDS011;4037;47.980;10.172;2022-09-09T16:53:44;2.43;;;1.33;;
7983;SDS011;4037;47.980;10.172;2022-09-09T16:56:11;4.57;;;1.87;;
7983;SDS011;4037;47.980;10.172;2022-09-09T16:58:38;2.83;;;1.17;;
7983;SDS011;4037;47.980;10.172;2022-09-09T17:01:04;3.87;;;1.23;;
7983;SDS011;4037;47.980;10.172;2022-09-09T17:03:31;2.57;;;1.27;;
7983;SDS011;4037;47.980;10.172;2022-09-09T17:05:57;5.10;;;1.57;;
7983;SDS011;4037;47.980;10.172;2022-09-09T17:08:26;1.83;;;1.30;;
7983;SDS011;4037;47.980;10.172;2022-09-09T17:10:53;2.20;;;1.33;;
7983;SDS011;4037;47.980;10.172;2022-09-09T17:13:19;5.07;;;1.70;;